Terminal Aerodrome Forecast
Issued by NWS

Home | Current Version | Previous Version | Text Only | Print | Product List | Glossary On
Versions: 1 2 3 4 5 6 7 8 9 10 11 12 13 14 15 16 17 18 19 20 21 22 23 24 25 26 27 28 29 30 31 32 33 34 35 36 37 38 39 40 41 42 43 44
473
FTUS43 KDTX 101140
TAFPTK
TAF
KPTK 101140Z 1012/1112 28013G20KT 3SM -SHSN OVC025
      TEMPO 1012/1014 1SM -SN OVC015
     FM101400 30013G20KT 6SM -SHSN SCT025 BKN035
     FM102200 26013KT P6SM SCT035 BKN045
     FM110400 26010KT P6SM SCT045=

USA.gov is the U.S. government's official web portal to all federal, state and local government web resources and services.